Terminal Aerodrome Forecast
Issued by NWS Grand Forks, ND

Home | Current Version | Previous Version | Graphics & Text | Print | Product List | Glossary On
Versions: 1 2 3 4 5 6 7 8 9 10 11 12 13 14 15 16 17 18 19
000
FTUS43 KFGF 200410 AAB
TAFGFK
TAF AMD
KGFK 200410Z 2004/2024 35005KT P6SM -SHRA BKN030
     FM200500 20005KT P6SM SCT150
     FM200700 30007KT P6SM FEW200=

USA.gov is the U.S. government's official web portal to all federal, state and local government web resources and services.